Time;durP1;ratioP1;P1;durP2;ratioP2;P2;SDS_P1;SDS_P2;PMS_P1;PMS_P2;Temp;Humidity;BMP_temperature;BMP_pressure;BME280_temperature;BME280_humidity;BME280_pressure;Samples;Min_cycle;Max_cycle;Signal;HPM_P1;HPM_P2
2021/06/29 00:02:23;;;;;;;8.15;6.63;;;;;;;-139.48;100.00;61774.03;5000459;28;20195;-69
2021/06/29 00:05:08;;;;;;;7.07;6.40;;;;;;;-139.48;100.00;61774.03;5013660;28;20133;-68
2021/06/29 00:07:52;;;;;;;12.90;6.85;;;;;;;-139.48;100.00;61774.03;5013636;28;20138;-68
2021/06/29 00:10:36;;;;;;;8.38;5.93;;;;;;;-139.48;100.00;61774.03;5013665;28;20130;-69
2021/06/29 00:13:21;;;;;;;7.70;5.70;;;;;;;-139.48;100.00;61774.03;5013922;28;20049;-68
2021/06/29 00:16:05;;;;;;;6.65;5.70;;;;;;;-139.48;100.00;61774.03;5013742;28;20065;-68
2021/06/29 00:18:49;;;;;;;8.18;6.03;;;;;;;-139.48;100.00;61774.03;5014570;28;20084;-68
2021/06/29 00:21:33;;;;;;;6.82;6.20;;;;;;;-139.48;100.00;61774.03;4999647;28;20057;-69
2021/06/29 00:24:17;;;;;;;6.40;5.80;;;;;;;-139.48;100.00;61774.03;4999296;28;20045;-68
2021/06/29 00:27:01;;;;;;;8.32;6.50;;;;;;;-139.48;100.00;61774.03;5013585;28;20057;-68
2021/06/29 00:29:45;;;;;;;7.13;6.43;;;;;;;-139.48;100.00;61774.03;4999511;28;20521;-69
2021/06/29 00:32:29;;;;;;;6.78;6.15;;;;;;;-139.48;100.00;61774.03;4999354;28;20052;-68
2021/06/29 00:35:13;;;;;;;8.50;7.10;;;;;;;-139.48;100.00;61774.03;5014381;28;20073;-69
2021/06/29 00:37:57;;;;;;;7.68;6.88;;;;;;;-139.48;100.00;61774.03;5013346;28;20148;-68
2021/06/29 00:40:41;;;;;;;7.57;6.88;;;;;;;-139.48;100.00;61774.03;5014332;28;20558;-68
2021/06/29 00:43:25;;;;;;;8.02;7.20;;;;;;;-139.48;100.00;61774.03;5014304;28;20048;-68
2021/06/29 00:46:09;;;;;;;7.70;6.90;;;;;;;-139.48;100.00;61774.03;5013438;28;20056;-68
2021/06/29 00:48:53;;;;;;;9.10;7.60;;;;;;;-139.48;100.00;61774.03;4999207;28;20095;-67
2021/06/29 00:51:37;;;;;;;9.68;7.28;;;;;;;-139.48;100.00;61774.03;5014126;28;20129;-69
2021/06/29 00:54:20;;;;;;;8.35;6.10;;;;;;;-139.48;100.00;61774.03;4998960;28;20560;-68
2021/06/29 00:57:07;;;;;;;9.85;6.07;;;;;;;-139.48;100.00;61774.03;5012652;28;20112;-68
2021/06/29 00:59:51;;;;;;;8.13;6.78;;;;;;;-139.48;100.00;61774.03;4998924;28;20052;-68
2021/06/29 01:02:35;;;;;;;8.63;6.25;;;;;;;-139.48;100.00;61774.03;5012771;28;20052;-68
2021/06/29 01:05:19;;;;;;;12.05;7.20;;;;;;;-139.48;100.00;61774.03;5012858;28;20045;-68
2021/06/29 01:08:03;;;;;;;8.00;7.03;;;;;;;-139.48;100.00;61774.03;5013957;28;20093;-69
2021/06/29 01:10:48;;;;;;;7.68;6.38;;;;;;;-139.48;100.00;61774.03;4999063;28;20048;-68
2021/06/29 01:13:32;;;;;;;8.40;6.05;;;;;;;-139.48;100.00;61774.03;5012900;28;20523;-69
2021/06/29 01:16:16;;;;;;;7.00;6.03;;;;;;;-139.48;100.00;61774.03;4998660;28;20129;-69
2021/06/29 01:19:01;;;;;;;6.80;6.13;;;;;;;-139.48;100.00;61774.03;4998990;28;20065;-69
2021/06/29 01:21:47;;;;;;;6.13;5.53;;;;;;;-139.48;100.00;61774.03;4998920;28;20071;-69
2021/06/29 01:24:32;;;;;;;6.47;5.88;;;;;;;-139.48;100.00;61774.03;5013701;28;20128;-69
2021/06/29 01:32:50;;;;;;;11.07;6.60;;;;;;;-139.48;100.00;61774.03;4998472;28;20051;-69
2021/06/29 01:35:34;;;;;;;9.15;6.68;;;;;;;-139.48;100.00;61774.03;5013158;28;20522;-68
2021/06/29 01:38:19;;;;;;;10.35;7.18;;;;;;;-139.48;100.00;61774.03;5019125;28;20052;-69
2021/06/29 01:41:04;;;;;;;11.35;6.60;;;;;;;-139.48;100.00;61774.03;4991779;28;20119;-68
2021/06/29 01:44:02;;;;;;;8.02;7.05;;;;;;;-139.48;100.00;61774.03;5018838;28;20112;-69
2021/06/29 01:46:49;;;;;;;8.05;6.80;;;;;;;-139.48;100.00;61774.03;5007104;28;20398;-69
2021/06/29 01:49:33;;;;;;;11.20;7.55;;;;;;;-139.48;100.00;61774.03;5019038;28;20104;-68
2021/06/29 01:52:17;;;;;;;9.60;6.72;;;;;;;-139.48;100.00;61774.03;5019949;28;20049;-69
2021/06/29 01:55:01;;;;;;;10.05;6.43;;;;;;;-139.48;100.00;61774.03;5004794;28;20052;-69
2021/06/29 01:57:48;;;;;;;11.90;6.68;;;;;;;-139.48;100.00;61774.03;5005047;28;20053;-69
2021/06/29 02:00:32;;;;;;;9.50;6.28;;;;;;;-139.48;100.00;61774.03;5005068;28;20435;-68
2021/06/29 02:03:16;;;;;;;7.60;6.28;;;;;;;-139.48;100.00;61774.03;5005040;28;20053;-68
2021/06/29 02:05:59;;;;;;;9.45;6.00;;;;;;;-139.48;100.00;61774.03;5019545;28;20065;-68
2021/06/29 02:08:44;;;;;;;6.88;6.13;;;;;;;-139.48;100.00;61774.03;5020176;28;20045;-69
2021/06/29 02:11:28;;;;;;;9.00;6.20;;;;;;;-139.48;100.00;61774.03;5018590;28;20100;-69
2021/06/29 02:14:12;;;;;;;8.65;6.20;;;;;;;-139.48;100.00;61774.03;5018956;28;20045;-68
2021/06/29 02:16:56;;;;;;;6.68;6.03;;;;;;;-139.48;100.00;61774.03;5018494;28;20053;-68
2021/06/29 02:19:40;;;;;;;7.07;6.38;;;;;;;-139.48;100.00;61774.03;5004807;28;20464;-69
2021/06/29 02:22:24;;;;;;;9.45;6.20;;;;;;;-139.48;100.00;61774.03;5018733;28;20049;-68
2021/06/29 02:25:09;;;;;;;7.25;5.57;;;;;;;-139.48;100.00;61774.03;5018896;28;20411;-69
2021/06/29 02:27:53;;;;;;;9.40;5.78;;;;;;;-139.48;100.00;61774.03;5019660;28;20057;-68
2021/06/29 02:30:37;;;;;;;8.02;5.65;;;;;;;-139.48;100.00;61774.03;5004514;28;20076;-68
2021/06/29 02:33:21;;;;;;;10.05;6.10;;;;;;;-139.48;100.00;61774.03;5018647;28;20052;-69
2021/06/29 02:36:05;;;;;;;8.73;6.40;;;;;;;-139.48;100.00;61774.03;5018324;28;20041;-68
2021/06/29 02:38:49;;;;;;;11.23;6.50;;;;;;;-139.48;100.00;61774.03;5019415;28;20127;-69
2021/06/29 02:41:33;;;;;;;7.75;5.95;;;;;;;-139.48;100.00;61774.03;5018578;28;20104;-68
2021/06/29 02:44:16;;;;;;;9.85;6.40;;;;;;;-139.48;100.00;61774.03;5019537;28;20067;-68
2021/06/29 02:47:01;;;;;;;10.68;6.30;;;;;;;-139.48;100.00;61774.03;5017770;28;20561;-69
2021/06/29 02:49:45;;;;;;;16.52;6.63;;;;;;;-139.48;100.00;61774.03;5001838;28;20056;-68
2021/06/29 02:52:29;;;;;;;6.93;5.78;;;;;;;-139.48;100.00;61774.03;5016379;28;20052;-68
2021/06/29 02:55:14;;;;;;;9.55;6.05;;;;;;;-139.48;100.00;61774.03;5015801;28;20056;-68
2021/06/29 02:57:58;;;;;;;12.75;6.10;;;;;;;-139.48;100.00;61774.03;5016261;28;20577;-68
2021/06/29 03:00:42;;;;;;;8.52;6.53;;;;;;;-139.48;100.00;61774.03;5016212;28;20069;-68
2021/06/29 03:03:26;;;;;;;11.30;6.22;;;;;;;-139.48;100.00;61774.03;5015071;28;20049;-69
2021/06/29 03:06:10;;;;;;;15.05;5.93;;;;;;;-139.48;100.00;61774.03;5014853;28;20141;-69
2021/06/29 03:08:53;;;;;;;7.50;6.55;;;;;;;-139.48;100.00;61774.03;5015324;28;20041;-66
2021/06/29 03:11:38;;;;;;;11.35;6.07;;;;;;;-139.48;100.00;61774.03;5016218;28;20064;-69
2021/06/29 03:14:21;;;;;;;11.88;6.70;;;;;;;-139.48;100.00;61774.03;5015911;28;20069;-69
2021/06/29 03:17:06;;;;;;;6.93;6.03;;;;;;;-139.48;100.00;61774.03;5000839;28;20077;-69
2021/06/29 03:19:51;;;;;;;9.48;5.20;;;;;;;-139.48;100.00;61774.03;5014923;28;20100;-69
2021/06/29 03:22:35;;;;;;;10.02;6.05;;;;;;;-139.48;100.00;61774.03;5014553;28;20128;-68
2021/06/29 03:25:19;;;;;;;11.93;5.32;;;;;;;-139.48;100.00;61774.03;5014730;28;20125;-69
2021/06/29 03:28:03;;;;;;;9.07;6.15;;;;;;;-139.48;100.00;61774.03;5000595;28;20430;-69
2021/06/29 03:30:47;;;;;;;8.60;6.05;;;;;;;-139.48;100.00;61774.03;5015423;28;20454;-69
2021/06/29 03:33:31;;;;;;;9.23;5.85;;;;;;;-139.48;100.00;61774.03;5014625;28;20052;-69
2021/06/29 03:36:15;;;;;;;8.38;6.22;;;;;;;-139.48;100.00;61774.03;5015334;28;20467;-69
2021/06/29 03:38:59;;;;;;;10.75;6.22;;;;;;;-139.48;100.00;61774.03;5014281;28;20119;-69
2021/06/29 03:41:43;;;;;;;13.75;6.10;;;;;;;-139.48;100.00;61774.03;5014464;28;20129;-69
2021/06/29 03:44:27;;;;;;;;;;;;;;;-139.48;100.00;61774.03;5015870;28;20100;-69
2021/06/29 03:47:11;;;;;;;9.85;5.75;;;;;;;-139.48;100.00;61774.03;5000270;28;19920;-68
2021/06/29 03:49:55;;;;;;;9.55;6.20;;;;;;;-139.48;100.00;61774.03;5014075;28;20176;-69
2021/06/29 03:52:39;;;;;;;6.88;5.82;;;;;;;-139.48;100.00;61774.03;5014502;28;20040;-69
2021/06/29 03:55:23;;;;;;;6.97;5.50;;;;;;;-139.48;100.00;61774.03;5013806;28;20044;-66
2021/06/29 03:58:07;;;;;;;5.80;5.20;;;;;;;-139.48;100.00;61774.03;5015159;28;20514;-69
2021/06/29 04:00:51;;;;;;;14.10;5.85;;;;;;;-139.48;100.00;61774.03;5013122;28;20518;-68
2021/06/29 04:03:35;;;;;;;9.05;5.57;;;;;;;-139.48;100.00;61774.03;5000433;28;20068;-69
2021/06/29 04:06:19;;;;;;;7.90;5.72;;;;;;;-139.48;100.00;61774.03;5014802;28;20149;-69
2021/06/29 04:09:05;;;;;;;12.38;5.85;;;;;;;-139.48;100.00;61774.03;5000074;28;20096;-69
2021/06/29 04:11:49;;;;;;;10.43;6.07;;;;;;;-139.48;100.00;61774.03;5000003;28;20072;-67
2021/06/29 04:14:32;;;;;;;10.77;5.47;;;;;;;-139.48;100.00;61774.03;5014604;28;20051;-69
2021/06/29 04:17:16;;;;;;;5.30;4.80;;;;;;;-139.48;100.00;61774.03;5013416;28;20084;-69
2021/06/29 04:20:01;;;;;;;10.55;5.03;;;;;;;-139.48;100.00;61774.03;4999610;28;20111;-68
2021/06/29 04:22:45;;;;;;;6.47;5.20;;;;;;;-139.48;100.00;61774.03;4999813;28;20054;-69
2021/06/29 04:25:29;;;;;;;7.47;4.60;;;;;;;-139.48;100.00;61774.03;4999714;28;20095;-68
2021/06/29 04:28:12;;;;;;;6.55;5.15;;;;;;;-139.48;100.00;61774.03;5013614;28;20126;-69
2021/06/29 04:30:56;;;;;;;8.00;4.60;;;;;;;-139.48;100.00;61774.03;5014267;28;20108;-69
2021/06/29 04:33:40;;;;;;;5.88;4.85;;;;;;;-139.48;100.00;61774.03;4999451;28;20525;-69
2021/06/29 04:36:24;;;;;;;9.25;5.00;;;;;;;-139.48;100.00;61774.03;4999355;28;20573;-69
2021/06/29 04:39:08;;;;;;;;;;;;;;;-139.48;100.00;61774.03;5013884;28;20092;-69
2021/06/29 04:41:52;;;;;;;6.03;4.40;;;;;;;-139.48;100.00;61774.03;4999445;28;19935;-68
2021/06/29 04:44:40;;;;;;;9.38;4.25;;;;;;;-139.48;100.00;61774.03;5013335;28;20045;-69
2021/06/29 04:47:23;;;;;;;8.90;4.60;;;;;;;-139.48;100.00;61774.03;4999371;28;20052;-68
2021/06/29 04:50:08;;;;;;;7.10;4.75;;;;;;;-139.48;100.00;61774.03;5013228;28;20056;-68
2021/06/29 04:52:52;;;;;;;7.80;4.07;;;;;;;-139.48;100.00;61774.03;5014168;28;20044;-68
2021/06/29 04:55:36;;;;;;;7.55;4.30;;;;;;;-139.48;100.00;61774.03;5012720;28;20466;-68
2021/06/29 04:58:20;;;;;;;6.88;3.97;;;;;;;-139.48;100.00;61774.03;4999467;28;20116;-67
2021/06/29 05:01:04;;;;;;;5.70;4.35;;;;;;;-139.48;100.00;61774.03;5012964;28;20127;-68
2021/06/29 05:03:48;;;;;;;9.73;4.28;;;;;;;-139.48;100.00;61774.03;5013146;28;20057;-68
2021/06/29 05:06:32;;;;;;;7.32;4.75;;;;;;;-139.48;100.00;61774.03;5012708;28;20530;-68
2021/06/29 05:09:16;;;;;;;8.60;4.40;;;;;;;-139.48;100.00;61774.03;4999162;28;20072;-68
2021/06/29 05:12:00;;;;;;;;;;;;;;;-139.48;100.00;61774.03;5014019;28;20092;-68
2021/06/29 05:14:44;;;;;;;14.13;4.93;;;;;;;-139.48;100.00;61774.03;5013966;28;19991;-68
2021/06/29 05:17:28;;;;;;;8.10;4.13;;;;;;;-139.48;100.00;61774.03;4998614;28;20056;-68
2021/06/29 05:20:12;;;;;;;4.50;4.10;;;;;;;-139.48;100.00;61774.03;5013820;28;20045;-68
2021/06/29 05:22:56;;;;;;;5.93;4.00;;;;;;;-139.48;100.00;61774.03;4985269;28;20574;-68
2021/06/29 05:25:40;;;;;;;10.00;4.18;;;;;;;-139.48;100.00;61774.03;4998670;28;20052;-68
2021/06/29 05:28:25;;;;;;;5.72;4.15;;;;;;;-139.48;100.00;61774.03;5012691;28;20561;-68
2021/06/29 05:31:10;;;;;;;4.15;3.85;;;;;;;-139.48;100.00;61774.03;5012700;28;20128;-68
2021/06/29 05:33:53;;;;;;;4.75;3.97;;;;;;;-139.48;100.00;61774.03;5012456;28;20144;-68
2021/06/29 05:36:37;;;;;;;5.00;3.97;;;;;;;-139.48;100.00;61774.03;5012535;28;20056;-68
2021/06/29 05:39:21;;;;;;;5.72;3.92;;;;;;;-139.48;100.00;61774.03;4998477;28;20052;-68
2021/06/29 05:42:05;;;;;;;5.10;4.22;;;;;;;-139.48;100.00;61774.03;5012187;28;20073;-68
2021/06/29 05:44:49;;;;;;;8.30;3.88;;;;;;;-139.48;100.00;61774.03;5012825;28;20071;-68
2021/06/29 05:47:35;;;;;;;4.45;3.92;;;;;;;-139.48;100.00;61774.03;4998550;28;20053;-68
2021/06/29 05:50:20;;;;;;;7.00;4.18;;;;;;;-139.48;100.00;61774.03;5012263;28;20049;-69
2021/06/29 05:53:04;;;;;;;5.75;4.13;;;;;;;-139.48;100.00;61774.03;5012672;28;20056;-69
2021/06/29 05:55:48;;;;;;;5.97;4.03;;;;;;;-139.48;100.00;61774.03;5011953;28;20068;-69
2021/06/29 05:58:32;;;;;;;7.10;4.32;;;;;;;-139.48;100.00;61774.03;5012173;28;20057;-68
2021/06/29 06:01:16;;;;;;;4.53;4.00;;;;;;;-139.48;100.00;61774.03;4998760;28;20398;-68
2021/06/29 06:04:00;;;;;;;5.30;3.90;;;;;;;-139.48;100.00;61774.03;4998520;28;20052;-68
2021/06/29 06:06:44;;;;;;;6.28;3.83;;;;;;;-139.48;100.00;61774.03;5012036;28;20576;-69
2021/06/29 06:09:28;;;;;;;7.10;4.13;;;;;;;-139.48;100.00;61774.03;5013180;28;20131;-68
2021/06/29 06:12:12;;;;;;;5.55;4.20;;;;;;;-139.48;100.00;61774.03;5012380;28;20558;-69
2021/06/29 06:14:56;;;;;;;8.80;4.35;;;;;;;-139.48;100.00;61774.03;5012051;28;20559;-68
2021/06/29 06:17:41;;;;;;;6.05;4.22;;;;;;;-139.48;100.00;61774.03;5012034;28;20120;-68
2021/06/29 06:20:25;;;;;;;9.93;4.40;;;;;;;-139.48;100.00;61774.03;5012226;28;20053;-68
2021/06/29 06:23:09;;;;;;;5.75;3.80;;;;;;;-139.48;100.00;61774.03;4999502;28;20053;-68
2021/06/29 06:25:53;;;;;;;4.00;3.70;;;;;;;-139.48;100.00;61774.03;5001947;28;20406;-69
2021/06/29 06:28:37;;;;;;;4.85;3.83;;;;;;;-139.48;100.00;61774.03;5015877;28;20418;-68
2021/06/29 06:31:21;;;;;;;6.63;4.20;;;;;;;-139.48;100.00;61774.03;5001923;28;20128;-68
2021/06/29 06:34:05;;;;;;;5.45;4.25;;;;;;;-139.48;100.00;61774.03;5015690;28;20053;-68
2021/06/29 06:36:49;;;;;;;7.45;4.32;;;;;;;-139.48;100.00;61774.03;5015698;28;20057;-68
2021/06/29 06:39:33;;;;;;;5.70;4.10;;;;;;;-139.48;100.00;61774.03;5001678;28;20281;-68
2021/06/29 06:42:16;;;;;;;8.15;4.43;;;;;;;-139.48;100.00;61774.03;5001822;28;20085;-68
2021/06/29 06:45:00;;;;;;;7.38;4.53;;;;;;;-139.48;100.00;61774.03;5016534;28;20494;-69
2021/06/29 06:47:45;;;;;;;13.82;4.25;;;;;;;-139.48;100.00;61774.03;5001854;28;20048;-68
2021/06/29 06:50:29;;;;;;;4.38;3.97;;;;;;;-139.48;100.00;61774.03;5015215;28;20069;-68
2021/06/29 06:53:14;;;;;;;4.43;4.03;;;;;;;-139.48;100.00;61774.03;5015456;28;20052;-69
2021/06/29 06:55:57;;;;;;;5.63;4.13;;;;;;;-139.48;100.00;61774.03;5001083;28;20060;-69
2021/06/29 06:58:43;;;;;;;6.95;4.10;;;;;;;-139.48;100.00;61774.03;5001571;28;20057;-68
2021/06/29 07:01:27;;;;;;;6.10;4.15;;;;;;;-139.48;100.00;61774.03;5016027;28;20077;-68
2021/06/29 07:04:11;;;;;;;4.80;3.90;;;;;;;-139.48;100.00;61774.03;5001148;28;20141;-68
2021/06/29 07:06:55;;;;;;;4.47;4.03;;;;;;;-139.48;100.00;61774.03;5014837;28;20069;-69
2021/06/29 07:09:39;;;;;;;4.53;3.90;;;;;;;-139.48;100.00;61774.03;5015131;28;20464;-68
2021/06/29 07:12:23;;;;;;;4.72;4.10;;;;;;;-139.48;100.00;61774.03;5015835;28;20125;-68
2021/06/29 07:15:08;;;;;;;5.45;4.22;;;;;;;-139.48;100.00;61774.03;5014523;28;20049;-69
2021/06/29 07:17:52;;;;;;;5.70;4.15;;;;;;;-139.48;100.00;61774.03;5014928;28;20073;-67
2021/06/29 07:20:36;;;;;;;9.70;3.70;;;;;;;-139.48;100.00;61774.03;5001217;28;20549;-69
2021/06/29 07:23:20;;;;;;;6.78;4.38;;;;;;;-139.48;100.00;61774.03;5014695;28;20069;-69
2021/06/29 07:26:04;;;;;;;5.05;3.65;;;;;;;-139.48;100.00;61774.03;5001232;28;20103;-68
2021/06/29 07:28:48;;;;;;;6.63;3.80;;;;;;;-139.48;100.00;61774.03;5014782;28;20057;-68
2021/06/29 07:31:32;;;;;;;7.55;4.53;;;;;;;-139.48;100.00;61774.03;5001048;28;20055;-68
2021/06/29 07:34:17;;;;;;;4.20;3.53;;;;;;;-139.48;100.00;61774.03;5014026;28;20112;-68
2021/06/29 07:37:01;;;;;;;6.63;3.80;;;;;;;-139.48;100.00;61774.03;5014499;28;20060;-69
2021/06/29 07:39:45;;;;;;;6.68;3.92;;;;;;;-139.48;100.00;61774.03;5015117;28;20111;-68
2021/06/29 07:42:32;;;;;;;4.00;3.60;;;;;;;-139.48;100.00;61774.03;5000855;28;20088;-69
2021/06/29 07:45:16;;;;;;;4.78;3.53;;;;;;;-139.48;100.00;61774.03;5001740;28;20136;-68
2021/06/29 07:48:02;;;;;;;8.13;3.42;;;;;;;-139.48;100.00;61774.03;5014073;28;20419;-68
2021/06/29 07:50:47;;;;;;;5.03;3.70;;;;;;;-139.48;100.00;61774.03;5000841;28;20061;-68
2021/06/29 07:53:30;;;;;;;3.40;2.85;;;;;;;-139.48;100.00;61774.03;5000190;28;20096;-69
2021/06/29 07:56:15;;;;;;;;;;;;;;;-139.48;100.00;61774.03;5014341;28;20053;-69
2021/06/29 07:58:58;;;;;;;5.93;3.20;;;;;;;-139.48;100.00;61774.03;5015024;28;19924;-68
2021/06/29 08:01:42;;;;;;;;;;;;;;;-139.48;100.00;61774.03;5014516;28;20153;-69
2021/06/29 08:04:26;;;;;;;3.03;2.73;;;;;;;-139.48;100.00;61774.03;5015059;28;19976;-68
2021/06/29 08:10:00;;;;;;;2.90;2.70;;;;;;;-139.48;100.00;61774.03;4975042;28;20116;-68
2021/06/29 08:12:43;;;;;;;6.30;3.10;;;;;;;-139.48;100.00;61774.03;4974843;28;20054;-68
2021/06/29 08:15:27;;;;;;;2.92;2.60;;;;;;;-139.48;100.00;61774.03;4975555;28;20054;-68
2021/06/29 08:18:12;;;;;;;;;;;;;;;-139.48;100.00;61774.03;4961606;28;20162;-68
2021/06/29 08:20:58;;;;;;;3.40;2.80;;;;;;;-139.48;100.00;61774.03;4975461;28;19920;-67
2021/06/29 08:23:41;;;;;;;3.20;2.90;;;;;;;-139.48;100.00;61774.03;4947342;28;20101;-68
2021/06/29 08:26:25;;;;;;;3.75;2.70;;;;;;;-139.48;100.00;61774.03;4947305;28;20089;-68
2021/06/29 08:29:09;;;;;;;3.20;2.80;;;;;;;-139.48;100.00;61774.03;4960737;28;20419;-68
2021/06/29 08:31:53;;;;;;;3.95;3.05;;;;;;;-139.48;100.00;61774.03;4961000;28;20054;-68
2021/06/29 08:34:36;;;;;;;2.78;2.50;;;;;;;-139.48;100.00;61774.03;4960569;28;20105;-69
2021/06/29 08:37:21;;;;;;;2.70;2.50;;;;;;;-139.48;100.00;61774.03;4975370;28;20049;-69
2021/06/29 08:40:08;;;;;;;4.38;3.10;;;;;;;-139.48;100.00;61774.03;4960875;28;20054;-68
2021/06/29 08:42:52;;;;;;;4.07;2.70;;;;;;;-139.48;100.00;61774.03;4960533;28;20050;-68
2021/06/29 08:45:37;;;;;;;4.10;2.97;;;;;;;-139.48;100.00;61774.03;4960050;28;20519;-68
2021/06/29 08:48:21;;;;;;;4.22;2.80;;;;;;;-139.48;100.00;61774.03;4960756;28;20145;-68
2021/06/29 08:51:06;;;;;;;3.30;3.03;;;;;;;-139.48;100.00;61774.03;4960527;28;20123;-68
2021/06/29 08:53:50;;;;;;;4.45;3.00;;;;;;;-139.48;100.00;61774.03;4960761;28;20443;-68
2021/06/29 08:56:34;;;;;;;;;;;;;;;-139.48;100.00;61774.03;4975543;28;20042;-68
2021/06/29 08:59:18;;;;;;;4.30;2.80;;;;;;;-139.48;100.00;61774.03;4960401;28;20278;-69
2021/06/29 09:02:02;;;;;;;;;;;;;;;-139.48;100.00;61774.03;4975190;28;20137;-69
2021/06/29 09:04:52;;;;;;;3.13;2.42;;;;;;;-139.48;100.00;61774.03;4974720;28;19921;-68
2021/06/29 09:07:36;;;;;;;3.08;2.83;;;;;;;-139.48;100.00;61774.03;4974642;28;20053;-68
2021/06/29 09:10:19;;;;;;;3.20;2.90;;;;;;;-139.48;100.00;61774.03;4974841;28;20085;-68
2021/06/29 09:13:05;;;;;;;3.38;2.80;;;;;;;-139.48;100.00;61774.03;4960163;28;20054;-68
2021/06/29 09:15:50;;;;;;;3.22;2.35;;;;;;;-139.48;100.00;61774.03;4974698;28;20101;-67
2021/06/29 09:18:41;;;;;;;4.82;2.70;;;;;;;-139.48;100.00;61774.03;4959809;28;20085;-68
2021/06/29 09:21:25;;;;;;;3.20;2.65;;;;;;;-139.48;100.00;61774.03;4946891;28;20142;-68
2021/06/29 09:24:09;;;;;;;3.10;2.50;;;;;;;-139.48;100.00;61774.03;4960257;28;20097;-67
2021/06/29 09:26:53;;;;;;;3.03;2.58;;;;;;;-139.48;100.00;61774.03;4974714;28;20053;-69
2021/06/29 09:29:39;;;;;;;;;;;;;;;-139.48;100.00;61774.03;4960473;28;20057;-69
2021/06/29 09:32:23;;;;;;;4.25;2.63;;;;;;;-139.48;100.00;61774.03;4974979;28;19953;-68
2021/06/29 09:35:08;;;;;;;2.40;2.20;;;;;;;-139.48;100.00;61774.03;4959981;28;20100;-68
2021/06/29 09:37:52;;;;;;;4.30;2.97;;;;;;;-139.48;100.00;61774.03;4946584;28;20105;-68
2021/06/29 09:40:37;;;;;;;5.63;2.47;;;;;;;-139.48;100.00;61774.03;4946515;28;20061;-68
2021/06/29 09:43:22;;;;;;;3.20;2.90;;;;;;;-139.48;100.00;61774.03;4960330;28;20046;-68
2021/06/29 09:46:14;;;;;;;4.95;2.75;;;;;;;-139.48;100.00;61774.03;4974277;28;20137;-68
2021/06/29 09:49:05;;;;;;;4.40;2.45;;;;;;;-139.48;100.00;61774.03;4974500;28;20405;-68
2021/06/29 09:51:52;;;;;;;2.80;2.60;;;;;;;-139.48;100.00;61774.03;4960398;28;20066;-67
2021/06/29 09:54:36;;;;;;;3.00;2.47;;;;;;;-139.48;100.00;61774.03;4959999;28;20511;-68
2021/06/29 09:57:26;;;;;;;5.30;2.80;;;;;;;-139.48;100.00;61774.03;4975822;28;20053;-68
2021/06/29 10:00:10;;;;;;;3.25;2.78;;;;;;;-139.48;100.00;61774.03;4978079;28;20048;-68
2021/06/29 10:02:54;;;;;;;3.38;3.08;;;;;;;-139.48;100.00;61774.03;4963535;28;20514;-68
2021/06/29 10:05:38;;;;;;;;;;;;;;;-139.48;100.00;61774.03;4963784;28;20514;-68
2021/06/29 10:08:33;;;;;;;3.08;2.65;;;;;;;-139.48;100.00;61774.03;4977983;28;19936;-68
2021/06/29 10:11:25;;;;;;;4.85;2.90;;;;;;;-139.48;100.00;61774.03;4963493;28;20053;-68
2021/06/29 10:14:12;;;;;;;4.38;3.03;;;;;;;-139.48;100.00;61774.03;4963192;28;20070;-67
2021/06/29 10:16:56;;;;;;;3.05;2.67;;;;;;;-139.48;100.00;61774.03;4949799;28;20603;-68
2021/06/29 10:19:49;;;;;;;;;;;;;;;-139.48;100.00;61774.03;4963513;28;20053;-68
2021/06/29 10:22:32;;;;;;;2.97;2.58;;;;;;;-139.48;100.00;61774.03;4977909;28;20015;-68
2021/06/29 10:25:16;;;;;;;;;;;;;;;-139.48;100.00;61774.03;4963404;28;20049;-68
2021/06/29 10:28:00;;;;;;;2.63;2.42;;;;;;;-139.48;100.00;61774.03;4963294;28;19945;-68
2021/06/29 10:30:45;;;;;;;3.92;2.95;;;;;;;-139.48;100.00;61774.03;4963206;28;20061;-68
2021/06/29 10:33:30;;;;;;;3.92;2.83;;;;;;;-139.48;100.00;61774.03;4977428;28;20089;-68
2021/06/29 10:36:14;;;;;;;5.22;2.85;;;;;;;-139.48;100.00;61774.03;4977626;28;20046;-68
2021/06/29 10:38:59;;;;;;;4.00;2.70;;;;;;;-139.48;100.00;61774.03;4977791;28;20513;-68
2021/06/29 10:42:02;;;;;;;2.45;2.25;;;;;;;-139.48;100.00;61774.03;4962922;28;20053;-68
2021/06/29 10:44:48;;;;;;;6.47;2.83;;;;;;;-139.48;100.00;61774.03;4949486;28;20464;-68
2021/06/29 10:47:32;;;;;;;5.25;2.80;;;;;;;-139.48;100.00;61774.03;4962460;28;20093;-69
2021/06/29 10:50:16;;;;;;;4.05;2.65;;;;;;;-139.48;100.00;61774.03;4977705;28;20101;-68
2021/06/29 10:53:00;;;;;;;2.55;2.35;;;;;;;-139.48;100.00;61774.03;4977119;28;20150;-67
2021/06/29 10:55:47;;;;;;;4.43;2.72;;;;;;;-139.48;100.00;61774.03;4977259;28;20551;-69
2021/06/29 10:58:43;;;;;;;3.15;2.42;;;;;;;-139.48;100.00;61774.03;4962639;28;20104;-69
2021/06/29 11:01:33;;;;;;;3.60;2.15;;;;;;;-139.48;100.00;61774.03;4977214;28;20086;-69
2021/06/29 11:04:46;;;;;;;2.85;2.65;;;;;;;-139.48;100.00;61774.03;4962736;28;20089;-69
2021/06/29 11:07:30;;;;;;;3.05;2.35;;;;;;;-139.48;100.00;61774.03;4962433;28;20097;-69
2021/06/29 11:10:29;;;;;;;2.67;2.47;;;;;;;-139.48;100.00;61774.03;4976446;28;20054;-68
2021/06/29 11:13:15;;;;;;;3.17;2.88;;;;;;;-139.48;100.00;61774.03;4977223;28;20484;-69
2021/06/29 11:15:59;;;;;;;4.32;2.65;;;;;;;-139.48;100.00;61774.03;4961993;28;20134;-67
2021/06/29 11:18:46;;;;;;;5.05;2.70;;;;;;;-139.48;100.00;61774.03;4976724;28;20074;-68
2021/06/29 11:21:30;;;;;;;3.20;2.75;;;;;;;-139.48;100.00;61774.03;4976532;28;20058;-69
2021/06/29 11:24:40;;;;;;;2.75;2.40;;;;;;;-139.48;100.00;61774.03;4976925;28;20094;-67
2021/06/29 11:28:02;;;;;;;3.10;2.75;;;;;;;-139.48;100.00;61774.03;4961988;28;20054;-68
2021/06/29 11:30:52;;;;;;;4.85;2.80;;;;;;;-139.48;100.00;61774.03;4961791;28;20146;-68
2021/06/29 11:33:54;;;;;;;3.28;2.35;;;;;;;-139.48;100.00;61774.03;4976551;28;20081;-68
2021/06/29 11:36:51;;;;;;;4.72;2.40;;;;;;;-139.48;100.00;61774.03;4949023;28;20049;-69
2021/06/29 11:39:35;;;;;;;2.60;2.40;;;;;;;-139.48;100.00;61774.03;4961784;28;20093;-69
2021/06/29 11:42:21;;;;;;;3.60;2.50;;;;;;;-139.48;100.00;61774.03;4976115;28;20053;-69
2021/06/29 11:45:07;;;;;;;2.83;2.60;;;;;;;-139.48;100.00;61774.03;4961904;28;20145;-69
2021/06/29 11:47:51;;;;;;;4.90;2.92;;;;;;;-139.48;100.00;61774.03;4961867;28;20537;-68
2021/06/29 11:50:42;;;;;;;3.90;3.17;;;;;;;-139.48;100.00;61774.03;4976080;28;20049;-68
2021/06/29 11:53:26;;;;;;;3.05;2.70;;;;;;;-139.48;100.00;61774.03;4961811;28;20571;-70
2021/06/29 11:56:11;;;;;;;3.38;2.75;;;;;;;-139.48;100.00;61774.03;4961458;28;20101;-69
2021/06/29 11:58:55;;;;;;;2.80;2.60;;;;;;;-139.48;100.00;61774.03;4975914;28;20097;-69
2021/06/29 12:01:39;;;;;;;2.78;2.50;;;;;;;-139.48;100.00;61774.03;4975867;28;20423;-69
2021/06/29 12:04:23;;;;;;;;;;;;;;;-139.48;100.00;61774.03;4948281;28;20527;-68
2021/06/29 12:07:08;;;;;;;3.58;1.67;;;;;;;-139.48;100.00;61774.03;4961424;28;19964;-68
2021/06/29 12:09:52;;;;;;;1.35;1.00;;;;;;;-139.48;100.00;61774.03;4961557;28;20101;-69
2021/06/29 12:12:38;;;;;;;14.40;3.10;;;;;;;-139.48;100.00;61774.03;4961041;28;20057;-68
2021/06/29 12:15:29;;;;;;;2.25;1.25;;;;;;;-139.48;100.00;61774.03;4975845;28;20169;-68
2021/06/29 12:18:19;;;;;;;3.25;1.00;;;;;;;-139.48;100.00;61774.03;4960869;28;20514;-68
2021/06/29 12:21:05;;;;;;;3.35;1.10;;;;;;;-139.48;100.00;61774.03;4960532;28;20170;-68
2021/06/29 12:23:49;;;;;;;4.05;1.45;;;;;;;-139.48;100.00;61774.03;4947410;28;20166;-68
2021/06/29 12:26:33;;;;;;;5.25;1.60;;;;;;;-139.48;100.00;61774.03;4961022;28;20124;-67
2021/06/29 12:29:35;;;;;;;7.50;2.60;;;;;;;-139.48;100.00;61774.03;4960743;28;20101;-67
2021/06/29 12:32:25;;;;;;;4.85;2.55;;;;;;;-139.48;100.00;61774.03;4961795;28;20519;-68
2021/06/29 12:35:10;;;;;;;5.25;2.97;;;;;;;-139.48;100.00;61774.03;4961210;28;20174;-69
2021/06/29 12:37:58;;;;;;;8.27;3.70;;;;;;;-139.48;100.00;61774.03;4975389;28;20053;-68
2021/06/29 12:40:49;;;;;;;17.38;4.43;;;;;;;-139.48;100.00;61774.03;4975474;28;20491;-68
2021/06/29 12:43:36;;;;;;;5.13;3.35;;;;;;;-139.48;100.00;61774.03;4960735;28;20137;-66